createdAt,value
2023-03-06T00:02:14.108Z,9.38
2023-03-06T00:04:42.400Z,9.18
2023-03-06T00:07:10.621Z,9.30
2023-03-06T00:09:38.838Z,8.60
2023-03-06T00:12:07.496Z,8.57
2023-03-06T00:14:35.629Z,9.73
2023-03-06T00:17:04.069Z,8.07
2023-03-06T00:19:33.611Z,10.65
2023-03-06T00:22:03.254Z,10.88
2023-03-06T00:24:31.411Z,10.52
2023-03-06T00:26:59.550Z,9.43
2023-03-06T00:29:27.698Z,10.43
2023-03-06T00:31:55.862Z,10.23
2023-03-06T00:34:24.046Z,9.63
2023-03-06T00:36:53.740Z,9.73
2023-03-06T00:39:22.159Z,9.48
2023-03-06T00:41:50.287Z,9.35
2023-03-06T00:44:18.432Z,10.43
2023-03-06T00:46:46.665Z,9.43
2023-03-06T00:49:14.816Z,10.30
2023-03-06T00:51:43.002Z,10.13
2023-03-06T00:54:12.532Z,9.57
2023-03-06T00:56:40.663Z,9.73
2023-03-06T00:59:08.814Z,9.82
2023-03-06T01:01:36.984Z,10.02
2023-03-06T01:04:05.467Z,10.57
2023-03-06T01:06:33.622Z,10.65
2023-03-06T01:09:01.793Z,11.15
2023-03-06T01:11:31.554Z,10.40
2023-03-06T01:13:59.835Z,10.35
2023-03-06T01:16:29.819Z,10.18
2023-03-06T01:18:58.088Z,9.93
2023-03-06T01:21:26.986Z,10.07
2023-03-06T01:23:55.136Z,11.07
2023-03-06T01:26:23.274Z,10.65
2023-03-06T01:28:52.816Z,10.90
2023-03-06T01:31:21.089Z,10.68
2023-03-06T01:33:49.243Z,10.82
2023-03-06T01:36:17.407Z,11.45
2023-03-06T01:38:45.872Z,12.23
2023-03-06T01:41:15.801Z,10.57
2023-03-06T01:43:46.088Z,10.63
2023-03-06T01:46:27.463Z,11.02
2023-03-06T01:48:57.739Z,10.55
2023-03-06T01:51:29.727Z,11.27
2023-03-06T01:56:27.700Z,10.20
2023-03-06T01:58:56.474Z,10.18
2023-03-06T02:01:26.597Z,10.77
2023-03-06T02:03:56.328Z,11.77
2023-03-06T02:06:24.577Z,10.55
2023-03-06T02:08:54.002Z,11.18
2023-03-06T02:11:23.458Z,10.95
2023-03-06T02:13:53.804Z,10.43
2023-03-06T02:16:26.609Z,10.25
2023-03-06T02:18:55.154Z,10.45
2023-03-06T02:21:26.670Z,9.93
2023-03-06T02:24:21.218Z,11.52
2023-03-06T02:26:51.610Z,12.48
2023-03-06T02:29:25.293Z,10.70
2023-03-06T02:31:53.491Z,11.13
2023-03-06T02:34:54.318Z,10.15
2023-03-06T02:37:24.402Z,9.40
2023-03-06T02:39:58.346Z,9.55
2023-03-06T02:42:29.884Z,8.50
2023-03-06T02:45:00.206Z,8.85
2023-03-06T02:47:28.532Z,8.90
2023-03-06T02:49:56.746Z,9.23
2023-03-06T02:52:25.224Z,9.20
2023-03-06T02:54:53.387Z,9.38
2023-03-06T02:57:21.538Z,9.48
2023-03-06T02:59:51.080Z,9.00
2023-03-06T03:02:19.271Z,9.35
2023-03-06T03:04:47.501Z,9.48
2023-03-06T03:07:15.658Z,8.98
2023-03-06T03:09:43.958Z,10.10
2023-03-06T03:12:12.357Z,10.32
2023-03-06T03:14:40.516Z,9.23
2023-03-06T03:17:10.055Z,10.23
2023-03-06T03:19:38.211Z,9.18
2023-03-06T03:22:06.646Z,10.82
2023-03-06T03:24:35.239Z,9.32
2023-03-06T03:27:03.473Z,9.93
2023-03-06T03:29:31.614Z,9.18
2023-03-06T03:31:59.827Z,9.98
2023-03-06T03:34:29.530Z,10.00
2023-03-06T03:36:57.694Z,10.82
2023-03-06T03:39:25.932Z,10.02
2023-03-06T03:41:54.127Z,10.82
2023-03-06T03:44:22.471Z,10.38
2023-03-06T03:46:50.648Z,10.55
2023-03-06T03:49:19.154Z,9.70
2023-03-06T03:51:48.693Z,11.18
2023-03-06T03:54:16.869Z,10.93
2023-03-06T03:56:45.150Z,9.90
2023-03-06T03:59:13.315Z,11.40
2023-03-06T04:01:41.524Z,10.73
2023-03-06T04:04:09.768Z,11.35
2023-03-06T04:06:37.982Z,10.32
2023-03-06T04:09:07.763Z,11.32
2023-03-06T04:11:35.920Z,10.10
2023-03-06T04:14:04.393Z,9.95
2023-03-06T04:16:32.575Z,10.52
2023-03-06T04:19:00.801Z,10.60
2023-03-06T04:21:30.730Z,10.45
2023-03-06T04:23:59.348Z,9.57
2023-03-06T04:26:28.953Z,10.57
2023-03-06T04:28:58.505Z,11.52
2023-03-06T04:31:26.721Z,11.63
2023-03-06T04:33:54.887Z,10.52
2023-03-06T04:36:28.341Z,10.13
2023-03-06T04:38:56.738Z,10.02
2023-03-06T04:41:24.998Z,10.27
2023-03-06T04:43:54.914Z,10.10
2023-03-06T04:46:23.115Z,9.52
2023-03-06T04:48:51.297Z,9.82
2023-03-06T04:51:19.447Z,10.18
2023-03-06T04:53:47.608Z,9.80
2023-03-06T04:56:15.749Z,10.02
2023-03-06T04:58:45.022Z,9.35
2023-03-06T05:01:14.712Z,10.00
2023-03-06T05:03:42.900Z,10.30
2023-03-06T05:06:11.051Z,9.88
2023-03-06T05:08:39.245Z,10.50
2023-03-06T05:11:07.451Z,10.43
2023-03-06T05:13:35.644Z,10.63
2023-03-06T05:16:04.375Z,9.93
2023-03-06T05:18:34.938Z,10.00
2023-03-06T05:21:03.863Z,10.98
2023-03-06T05:23:33.602Z,10.45
2023-03-06T05:26:02.143Z,10.70
2023-03-06T05:28:30.302Z,10.27
2023-03-06T05:30:58.460Z,9.77
2023-03-06T05:33:26.994Z,9.88
2023-03-06T05:35:56.575Z,10.00
2023-03-06T05:38:24.771Z,9.63
2023-03-06T05:40:53.124Z,9.82
2023-03-06T05:43:21.546Z,9.73
2023-03-06T05:45:50.557Z,9.88
2023-03-06T05:48:18.742Z,10.48
2023-03-06T05:50:46.888Z,14.23
2023-03-06T05:53:16.405Z,12.02
2023-03-06T05:55:44.586Z,9.95
2023-03-06T05:58:12.776Z,11.23
2023-03-06T06:00:40.933Z,9.68
2023-03-06T06:03:09.113Z,10.52
2023-03-06T06:05:40.395Z,10.63
2023-03-06T06:08:08.556Z,9.05
2023-03-06T06:10:38.088Z,9.80
2023-03-06T06:13:06.389Z,9.30
2023-03-06T06:15:34.634Z,9.68
2023-03-06T06:18:02.831Z,9.75
2023-03-06T06:20:31.026Z,9.75
2023-03-06T06:22:59.262Z,9.60
2023-03-06T06:25:27.463Z,9.52
2023-03-06T06:27:57.889Z,9.25
2023-03-06T06:30:26.283Z,9.38
2023-03-06T06:32:54.415Z,9.05
2023-03-06T06:35:23.060Z,9.50
2023-03-06T06:37:51.308Z,9.52
2023-03-06T06:40:21.011Z,9.35
2023-03-06T06:42:49.172Z,8.40
2023-03-06T06:45:18.807Z,9.05
2023-03-06T06:47:50.190Z,9.35
2023-03-06T06:50:19.223Z,9.98
2023-03-06T06:52:47.666Z,9.10
2023-03-06T06:55:15.956Z,9.48
2023-03-06T06:57:44.610Z,9.32
2023-03-06T07:00:15.670Z,9.13
2023-03-06T07:02:49.151Z,9.47
2023-03-06T07:05:17.518Z,9.70
2023-03-06T07:07:46.012Z,9.82
2023-03-06T07:10:17.666Z,10.75
2023-03-06T07:12:46.661Z,9.25
2023-03-06T07:15:16.572Z,10.38
2023-03-06T07:17:47.715Z,9.10
2023-03-06T07:20:18.334Z,11.13
2023-03-06T07:22:51.200Z,10.32
2023-03-06T07:25:22.624Z,9.65
2023-03-06T07:27:54.184Z,9.43
2023-03-06T07:30:23.304Z,9.80
2023-03-06T07:32:55.533Z,10.35
2023-03-06T07:35:24.841Z,10.38
2023-03-06T07:37:53.101Z,9.43
2023-03-06T07:40:22.065Z,9.27
2023-03-06T07:42:50.248Z,10.30
2023-03-06T07:45:18.509Z,8.93
2023-03-06T07:47:46.943Z,9.77
2023-03-06T07:50:16.509Z,10.82
2023-03-06T07:52:44.824Z,10.80
2023-03-06T07:55:13.802Z,9.90
2023-03-06T07:57:42.407Z,9.95
2023-03-06T08:00:14.071Z,9.57
2023-03-06T08:02:43.020Z,10.27
2023-03-06T08:05:13.755Z,10.40
2023-03-06T08:07:43.394Z,9.77
2023-03-06T08:10:15.415Z,9.93
2023-03-06T08:15:12.873Z,10.40
2023-03-06T08:17:41.187Z,11.13
2023-03-06T08:20:11.406Z,11.85
2023-03-06T08:22:39.907Z,12.27
2023-03-06T08:25:11.469Z,12.27
2023-03-06T08:27:39.651Z,13.20
2023-03-06T08:30:09.222Z,11.10
2023-03-06T08:32:38.129Z,13.23
2023-03-06T08:35:07.251Z,11.38
2023-03-06T08:37:35.550Z,9.98
2023-03-06T08:40:04.801Z,11.20
2023-03-06T08:42:34.471Z,11.20
2023-03-06T08:45:02.614Z,10.48
2023-03-06T08:47:30.793Z,10.65
2023-03-06T08:50:00.810Z,10.55
2023-03-06T08:52:29.176Z,11.00
2023-03-06T08:54:58.057Z,10.45
2023-03-06T08:57:26.309Z,9.88
2023-03-06T08:59:56.035Z,10.70
2023-03-06T09:02:24.268Z,11.00
2023-03-06T09:04:52.436Z,11.77
2023-03-06T09:07:20.719Z,10.63
2023-03-06T09:09:48.896Z,10.77
2023-03-06T09:12:17.070Z,11.02
2023-03-06T09:14:45.262Z,11.55
2023-03-06T09:17:14.918Z,11.65
2023-03-06T09:19:43.173Z,11.32
2023-03-06T09:22:11.652Z,11.40
2023-03-06T09:24:39.789Z,10.77
2023-03-06T09:27:07.992Z,11.43
2023-03-06T09:29:36.150Z,12.18
2023-03-06T09:32:04.400Z,11.88
2023-03-06T09:34:33.932Z,11.63
2023-03-06T09:37:03.514Z,11.88
2023-03-06T09:39:31.747Z,12.60
2023-03-06T09:42:00.089Z,11.45
2023-03-06T09:44:30.135Z,12.02
2023-03-06T09:47:31.676Z,12.60
2023-03-06T09:50:14.981Z,13.10
2023-03-06T09:52:48.498Z,11.60
2023-03-06T09:55:19.909Z,13.00
2023-03-06T09:57:55.113Z,13.43
2023-03-06T10:00:30.195Z,12.13
2023-03-06T10:03:09.512Z,12.43
2023-03-06T10:05:44.229Z,13.30
2023-03-06T10:08:22.049Z,13.25
2023-03-06T10:10:58.781Z,13.80
2023-03-06T10:13:31.234Z,11.85
2023-03-06T10:16:07.588Z,12.77
2023-03-06T10:18:38.421Z,12.07
2023-03-06T10:21:22.354Z,12.30
2023-03-06T10:23:55.362Z,13.65
2023-03-06T10:26:26.550Z,11.50
2023-03-06T10:29:07.589Z,12.82
2023-03-06T10:31:36.378Z,12.75
2023-03-06T10:34:17.870Z,13.05
2023-03-06T10:36:47.394Z,13.57
2023-03-06T10:39:17.725Z,14.05
2023-03-06T10:41:46.338Z,13.23
2023-03-06T10:44:26.445Z,12.93
2023-03-06T10:46:56.294Z,12.48
2023-03-06T10:49:31.111Z,13.63
2023-03-06T10:52:02.971Z,13.30
2023-03-06T10:54:33.742Z,13.95
2023-03-06T10:57:20.931Z,12.90
2023-03-06T10:59:54.476Z,13.18
2023-03-06T11:02:30.483Z,12.75
2023-03-06T11:05:00.399Z,13.00
2023-03-06T11:07:31.225Z,11.43
2023-03-06T11:10:16.914Z,12.00
2023-03-06T11:12:56.730Z,12.25
2023-03-06T11:15:25.912Z,11.60
2023-03-06T11:18:00.542Z,12.55
2023-03-06T11:20:48.419Z,12.98
2023-03-06T11:23:22.939Z,12.40
2023-03-06T11:25:56.268Z,12.82
2023-03-06T11:28:29.244Z,11.43
2023-03-06T11:31:03.219Z,11.93
2023-03-06T11:33:37.478Z,11.07
2023-03-06T11:36:14.378Z,11.32
2023-03-06T11:38:51.006Z,10.77
2023-03-06T11:41:32.305Z,10.27
2023-03-06T11:44:07.585Z,10.77
2023-03-06T11:46:41.026Z,10.52
2023-03-06T11:49:22.267Z,10.38
2023-03-06T11:51:56.339Z,10.27
2023-03-06T11:54:26.047Z,10.48
2023-03-06T11:56:57.288Z,10.30
2023-03-06T11:59:51.818Z,10.95
2023-03-06T12:02:39.326Z,11.15
2023-03-06T12:05:29.373Z,10.90
2023-03-06T12:08:07.073Z,10.35
2023-03-06T12:10:49.069Z,10.45
2023-03-06T12:13:33.190Z,11.25
2023-03-06T12:16:23.012Z,9.60
2023-03-06T12:18:59.712Z,9.75
2023-03-06T12:21:41.656Z,10.13
2023-03-06T12:24:23.288Z,10.13
2023-03-06T12:27:10.209Z,10.52
2023-03-06T12:29:54.186Z,9.90
2023-03-06T12:32:36.638Z,9.77
2023-03-06T12:35:22.336Z,11.95
2023-03-06T12:38:04.860Z,11.55
2023-03-06T12:40:51.246Z,8.90
2023-03-06T12:43:52.342Z,8.60
2023-03-06T12:46:23.025Z,9.52
2023-03-06T12:48:59.458Z,8.98
2023-03-06T12:51:28.015Z,8.32
2023-03-06T12:53:57.916Z,8.63
2023-03-06T12:56:26.435Z,9.50
2023-03-06T12:58:56.679Z,8.70
2023-03-06T13:01:52.601Z,10.05
2023-03-06T13:04:45.877Z,10.20
2023-03-06T13:07:29.785Z,9.85
2023-03-06T13:10:14.595Z,9.18
2023-03-06T13:12:55.927Z,9.52
2023-03-06T13:16:05.350Z,9.80
2023-03-06T13:19:02.161Z,10.25
2023-03-06T13:21:48.744Z,10.48
2023-03-06T13:24:21.180Z,14.18
2023-03-06T13:26:54.112Z,9.45
2023-03-06T13:29:50.199Z,9.35
2023-03-06T13:32:29.055Z,9.00
2023-03-06T13:34:57.292Z,9.65
2023-03-06T13:37:38.636Z,8.95
2023-03-06T13:40:27.338Z,9.88
2023-03-06T13:43:05.478Z,8.90
2023-03-06T13:45:37.820Z,9.73
2023-03-06T13:48:33.831Z,9.50
2023-03-06T13:50:57.679Z,8.48
2023-03-06T13:53:49.435Z,8.77
2023-03-06T13:56:49.034Z,9.00
2023-03-06T14:00:10.342Z,7.95
2023-03-06T14:02:54.701Z,7.78
2023-03-06T14:05:25.586Z,8.35
2023-03-06T14:08:08.566Z,8.73
2023-03-06T14:10:39.576Z,8.40
2023-03-06T14:13:15.429Z,8.50
2023-03-06T14:15:45.966Z,7.70
2023-03-06T14:18:23.742Z,7.88
2023-03-06T14:20:58.103Z,8.18
2023-03-06T14:23:35.527Z,8.27
2023-03-06T14:26:15.534Z,8.55
2023-03-06T14:28:45.244Z,8.02
2023-03-06T14:31:18.952Z,7.63
2023-03-06T14:33:52.787Z,7.10
2023-03-06T14:36:24.467Z,8.13
2023-03-06T14:38:55.995Z,7.78
2023-03-06T14:41:26.801Z,7.85
2023-03-06T14:44:17.758Z,8.35
2023-03-06T14:46:47.036Z,7.30
2023-03-06T14:49:16.536Z,7.43
2023-03-06T14:51:49.165Z,7.10
2023-03-06T14:54:20.572Z,7.57
2023-03-06T14:56:53.088Z,6.65
2023-03-06T14:59:25.868Z,7.68
2023-03-06T15:01:58.577Z,8.20
2023-03-06T15:04:31.265Z,7.47
2023-03-06T15:07:01.036Z,7.43
2023-03-06T15:09:32.582Z,6.35
2023-03-06T15:12:02.868Z,7.63
2023-03-06T15:14:36.544Z,7.60
2023-03-06T15:17:25.075Z,7.65
2023-03-06T15:19:55.600Z,7.50
2023-03-06T15:22:37.820Z,6.97
2023-03-06T15:25:22.594Z,6.75
2023-03-06T15:27:52.413Z,6.43
2023-03-06T15:30:27.052Z,6.30
2023-03-06T15:33:11.165Z,7.15
2023-03-06T15:35:39.910Z,6.55
2023-03-06T15:38:36.776Z,7.05
2023-03-06T15:41:06.833Z,7.63
2023-03-06T15:43:38.356Z,11.73
2023-03-06T15:46:08.733Z,7.70
2023-03-06T15:48:37.002Z,8.55
2023-03-06T15:51:05.851Z,7.47
2023-03-06T15:53:35.652Z,7.35
2023-03-06T15:56:03.835Z,7.57
2023-03-06T15:58:34.731Z,7.07
2023-03-06T16:01:03.848Z,7.50
2023-03-06T16:03:32.217Z,7.97
2023-03-06T16:06:00.366Z,8.88
2023-03-06T16:08:28.898Z,7.82
2023-03-06T16:10:59.104Z,7.57
2023-03-06T16:13:29.569Z,8.45
2023-03-06T16:15:57.847Z,9.05
2023-03-06T16:18:26.118Z,9.13
2023-03-06T16:20:54.272Z,8.15
2023-03-06T16:23:22.430Z,8.15
2023-03-06T16:25:50.873Z,7.70
2023-03-06T16:28:20.544Z,7.18
2023-03-06T16:30:48.710Z,8.02
2023-03-06T16:33:16.920Z,7.20
2023-03-06T16:35:47.192Z,7.53
2023-03-06T16:38:16.352Z,8.02
2023-03-06T16:40:44.970Z,7.15
2023-03-06T16:43:16.118Z,7.45
2023-03-06T16:45:45.865Z,7.32
2023-03-06T16:48:18.019Z,7.00
2023-03-06T16:50:46.549Z,10.10
2023-03-06T16:53:15.365Z,8.20
2023-03-06T16:55:43.756Z,6.93
2023-03-06T16:58:11.915Z,6.75
2023-03-06T17:00:40.150Z,6.88
2023-03-06T17:03:09.679Z,6.28
2023-03-06T17:05:38.663Z,6.38
2023-03-06T17:08:07.126Z,6.60
2023-03-06T17:10:35.417Z,6.63
2023-03-06T17:13:03.619Z,7.00
2023-03-06T17:15:31.856Z,6.95
2023-03-06T17:18:00.077Z,6.35
2023-03-06T17:20:29.782Z,6.95
2023-03-06T17:22:57.981Z,6.70
2023-03-06T17:25:26.159Z,6.75
2023-03-06T17:27:54.343Z,7.22
2023-03-06T17:30:22.571Z,7.03
2023-03-06T17:32:50.718Z,6.82
2023-03-06T17:35:18.997Z,7.47
2023-03-06T17:37:48.532Z,6.70
2023-03-06T17:40:16.907Z,7.40
2023-03-06T17:42:45.064Z,7.95
2023-03-06T17:45:13.837Z,7.15
2023-03-06T17:47:42.060Z,7.20
2023-03-06T17:50:11.672Z,7.38
2023-03-06T17:52:39.931Z,7.32
2023-03-06T17:55:10.532Z,8.07
2023-03-06T17:57:38.798Z,8.68
2023-03-06T18:00:08.470Z,7.63
2023-03-06T18:02:36.936Z,8.13
2023-03-06T18:05:05.552Z,9.50
2023-03-06T18:07:33.770Z,8.15
2023-03-06T18:10:01.892Z,8.27
2023-03-06T18:12:31.786Z,9.20
2023-03-06T18:14:59.947Z,9.25
2023-03-06T18:17:28.258Z,8.68
2023-03-06T18:19:56.971Z,8.75
2023-03-06T18:22:25.089Z,9.65
2023-03-06T18:24:53.231Z,9.05
2023-03-06T18:27:21.901Z,9.57
2023-03-06T18:29:52.233Z,9.45
2023-03-06T18:32:20.451Z,10.07
2023-03-06T18:34:50.601Z,10.95
2023-03-06T18:37:18.876Z,10.40
2023-03-06T18:39:47.134Z,11.43
2023-03-06T18:42:15.729Z,10.65
2023-03-06T18:44:47.704Z,10.63
2023-03-06T18:49:46.296Z,9.15
2023-03-06T18:52:14.544Z,9.05
2023-03-06T18:54:42.835Z,9.38
2023-03-06T18:57:12.280Z,10.15
2023-03-06T18:59:40.479Z,9.57
2023-03-06T19:02:09.048Z,11.15
2023-03-06T19:04:39.094Z,11.23
2023-03-06T19:07:07.811Z,11.68
2023-03-06T19:09:35.985Z,12.60
2023-03-06T19:12:04.429Z,13.93
2023-03-06T19:14:32.595Z,13.85
2023-03-06T19:17:00.948Z,13.25
2023-03-06T19:19:29.392Z,13.38
2023-03-06T19:22:00.432Z,11.63
2023-03-06T19:24:28.616Z,11.83
2023-03-06T19:26:56.792Z,10.05
2023-03-06T19:29:24.929Z,9.70
2023-03-06T19:31:53.147Z,10.38
2023-03-06T19:34:21.478Z,10.32
2023-03-06T19:36:51.283Z,10.63
2023-03-06T19:39:20.848Z,10.85
2023-03-06T19:41:49.114Z,10.25
2023-03-06T19:44:17.609Z,10.43
2023-03-06T19:46:45.768Z,11.65
2023-03-06T19:49:21.687Z,11.98
2023-03-06T19:51:49.874Z,11.35
2023-03-06T19:54:23.261Z,11.82
2023-03-06T19:56:52.789Z,11.98
2023-03-06T19:59:21.102Z,11.52
2023-03-06T20:01:49.305Z,10.77
2023-03-06T20:04:17.534Z,11.43
2023-03-06T20:06:46.751Z,11.20
2023-03-06T20:09:14.937Z,12.02
2023-03-06T20:11:43.078Z,12.05
2023-03-06T20:14:14.414Z,11.70
2023-03-06T20:16:42.606Z,10.43
2023-03-06T20:19:12.472Z,11.07
2023-03-06T20:21:40.634Z,11.48
2023-03-06T20:24:09.983Z,11.20
2023-03-06T20:26:38.751Z,11.23
2023-03-06T20:29:07.397Z,10.57
2023-03-06T20:31:37.270Z,10.20
2023-03-06T20:34:05.997Z,9.98
2023-03-06T20:36:36.048Z,9.38
2023-03-06T20:39:05.749Z,9.50
2023-03-06T20:41:34.526Z,10.48
2023-03-06T20:44:05.452Z,10.07
2023-03-06T20:46:33.910Z,9.45
2023-03-06T20:49:03.545Z,10.45
2023-03-06T20:51:33.081Z,9.82
2023-03-06T20:54:02.532Z,9.73
2023-03-06T20:56:32.699Z,9.55
2023-03-06T20:59:01.873Z,9.10
2023-03-06T21:01:31.617Z,9.32
2023-03-06T21:04:00.774Z,9.65
2023-03-06T21:06:30.550Z,9.60
2023-03-06T21:08:59.394Z,9.15
2023-03-06T21:11:28.032Z,9.48
2023-03-06T21:13:56.604Z,9.32
2023-03-06T21:16:26.790Z,10.05
2023-03-06T21:18:56.398Z,10.20
2023-03-06T21:21:27.262Z,10.88
2023-03-06T21:23:57.538Z,10.20
2023-03-06T21:26:27.910Z,9.65
2023-03-06T21:28:58.141Z,9.95
2023-03-06T21:31:27.110Z,9.75
2023-03-06T21:33:55.975Z,10.32
2023-03-06T21:36:24.522Z,9.52
2023-03-06T21:38:54.027Z,10.80
2023-03-06T21:41:25.329Z,9.60
2023-03-06T21:43:57.413Z,10.55
2023-03-06T21:46:26.093Z,10.25
2023-03-06T21:48:54.303Z,11.20
2023-03-06T21:51:24.469Z,10.52
2023-03-06T21:53:53.318Z,10.48
2023-03-06T21:56:25.460Z,10.32
2023-03-06T21:58:54.068Z,10.10
2023-03-06T22:01:24.335Z,9.25
2023-03-06T22:03:52.688Z,10.15
2023-03-06T22:06:23.219Z,10.13
2023-03-06T22:08:51.530Z,10.32
2023-03-06T22:11:21.282Z,10.45
2023-03-06T22:13:51.460Z,10.65
2023-03-06T22:16:20.783Z,10.77
2023-03-06T22:18:51.251Z,11.32
2023-03-06T22:21:21.593Z,10.90
2023-03-06T22:23:50.963Z,13.18
2023-03-06T22:26:19.545Z,11.57
2023-03-06T22:28:47.715Z,9.75
2023-03-06T22:31:19.558Z,15.90
2023-03-06T22:33:48.196Z,19.00
2023-03-06T22:36:17.048Z,14.20
2023-03-06T22:38:46.727Z,12.25
2023-03-06T22:41:16.391Z,11.82
2023-03-06T22:43:44.943Z,15.82
2023-03-06T22:46:14.885Z,11.60
2023-03-06T22:48:44.528Z,10.98
2023-03-06T22:51:14.465Z,10.30
2023-03-06T22:53:42.901Z,10.82
2023-03-06T22:56:13.300Z,10.73
2023-03-06T22:58:41.679Z,10.23
2023-03-06T23:01:11.405Z,9.93
2023-03-06T23:03:40.895Z,10.32
2023-03-06T23:06:13.325Z,11.30
2023-03-06T23:08:42.159Z,11.25
2023-03-06T23:11:14.195Z,9.55
2023-03-06T23:13:42.353Z,11.25
2023-03-06T23:16:10.937Z,10.73
2023-03-06T23:18:40.048Z,10.68
2023-03-06T23:21:10.920Z,11.48
2023-03-06T23:23:39.270Z,11.10
2023-03-06T23:26:08.295Z,10.85
2023-03-06T23:28:36.440Z,10.20
2023-03-06T23:31:08.189Z,10.27
2023-03-06T23:33:36.931Z,10.15
2023-03-06T23:36:05.971Z,9.88
2023-03-06T23:38:35.846Z,10.38
2023-03-06T23:41:04.717Z,10.02
2023-03-06T23:43:33.127Z,11.00
2023-03-06T23:46:01.644Z,10.45
2023-03-06T23:48:30.311Z,10.68
2023-03-06T23:50:58.634Z,10.18
2023-03-06T23:53:26.973Z,10.07
2023-03-06T23:55:56.503Z,10.68
2023-03-06T23:58:24.687Z,11.68
